sensor_id;sensor_type;location;lat;lon;timestamp;P1;durP1;ratioP1;P2;durP2;ratioP2
69087;SDS011;56190;43.562;5.036;2023-06-04T00:00:13;10.90;;;7.72;;
69087;SDS011;56190;43.562;5.036;2023-06-04T00:02:39;10.43;;;7.80;;
69087;SDS011;56190;43.562;5.036;2023-06-04T00:05:04;8.10;;;7.30;;
69087;SDS011;56190;43.562;5.036;2023-06-04T00:07:29;7.85;;;7.07;;
69087;SDS011;56190;43.562;5.036;2023-06-04T00:09:55;8.73;;;7.65;;
69087;SDS011;56190;43.562;5.036;2023-06-04T00:12:20;8.82;;;7.93;;
69087;SDS011;56190;43.562;5.036;2023-06-04T00:14:45;8.50;;;7.60;;
69087;SDS011;56190;43.562;5.036;2023-06-04T00:17:11;8.38;;;7.47;;
69087;SDS011;56190;43.562;5.036;2023-06-04T00:19:38;9.65;;;8.65;;
69087;SDS011;56190;43.562;5.036;2023-06-04T00:22:03;8.90;;;8.00;;
69087;SDS011;56190;43.562;5.036;2023-06-04T00:24:29;8.98;;;7.65;;
69087;SDS011;56190;43.562;5.036;2023-06-04T00:26:54;10.18;;;7.97;;
69087;SDS011;56190;43.562;5.036;2023-06-04T00:29:20;9.63;;;8.43;;
69087;SDS011;56190;43.562;5.036;2023-06-04T00:31:46;7.75;;;7.05;;
69087;SDS011;56190;43.562;5.036;2023-06-04T00:34:13;9.68;;;7.93;;
69087;SDS011;56190;43.562;5.036;2023-06-04T00:36:39;7.97;;;7.13;;
69087;SDS011;56190;43.562;5.036;2023-06-04T00:39:05;8.88;;;7.97;;
69087;SDS011;56190;43.562;5.036;2023-06-04T00:41:30;8.52;;;7.70;;
69087;SDS011;56190;43.562;5.036;2023-06-04T00:43:55;10.30;;;8.23;;
69087;SDS011;56190;43.562;5.036;2023-06-04T00:46:22;9.38;;;8.20;;
69087;SDS011;56190;43.562;5.036;2023-06-04T00:48:47;8.40;;;7.57;;
69087;SDS011;56190;43.562;5.036;2023-06-04T00:51:12;8.50;;;7.70;;
69087;SDS011;56190;43.562;5.036;2023-06-04T00:53:38;9.32;;;7.82;;
69087;SDS011;56190;43.562;5.036;2023-06-04T00:56:03;9.10;;;7.05;;
69087;SDS011;56190;43.562;5.036;2023-06-04T00:58:30;9.65;;;8.02;;
69087;SDS011;56190;43.562;5.036;2023-06-04T01:00:58;8.77;;;7.57;;
69087;SDS011;56190;43.562;5.036;2023-06-04T01:03:25;10.60;;;8.50;;
69087;SDS011;56190;43.562;5.036;2023-06-04T01:08:20;8.32;;;7.45;;
69087;SDS011;56190;43.562;5.036;2023-06-04T01:10:57;8.40;;;7.60;;
69087;SDS011;56190;43.562;5.036;2023-06-04T01:13:24;8.43;;;7.63;;
69087;SDS011;56190;43.562;5.036;2023-06-04T01:15:50;8.80;;;7.85;;
69087;SDS011;56190;43.562;5.036;2023-06-04T01:18:18;9.10;;;8.10;;
69087;SDS011;56190;43.562;5.036;2023-06-04T01:20:55;10.18;;;8.10;;
69087;SDS011;56190;43.562;5.036;2023-06-04T01:23:32;9.18;;;7.43;;
69087;SDS011;56190;43.562;5.036;2023-06-04T01:25:59;8.85;;;7.95;;
69087;SDS011;56190;43.562;5.036;2023-06-04T01:28:27;9.52;;;8.48;;
69087;SDS011;56190;43.562;5.036;2023-06-04T01:30:54;8.77;;;7.90;;
69087;SDS011;56190;43.562;5.036;2023-06-04T01:33:21;8.52;;;7.63;;
69087;SDS011;56190;43.562;5.036;2023-06-04T01:35:47;9.27;;;8.27;;
69087;SDS011;56190;43.562;5.036;2023-06-04T01:38:14;9.40;;;8.35;;
69087;SDS011;56190;43.562;5.036;2023-06-04T01:40:39;7.18;;;6.50;;
69087;SDS011;56190;43.562;5.036;2023-06-04T01:43:06;10.63;;;7.63;;
69087;SDS011;56190;43.562;5.036;2023-06-04T01:45:31;10.18;;;7.85;;
69087;SDS011;56190;43.562;5.036;2023-06-04T01:47:56;8.27;;;7.57;;
69087;SDS011;56190;43.562;5.036;2023-06-04T01:50:24;8.65;;;7.85;;
69087;SDS011;56190;43.562;5.036;2023-06-04T01:52:49;9.13;;;8.07;;
69087;SDS011;56190;43.562;5.036;2023-06-04T01:55:16;10.88;;;7.82;;
69087;SDS011;56190;43.562;5.036;2023-06-04T01:57:41;8.88;;;7.82;;
69087;SDS011;56190;43.562;5.036;2023-06-04T02:00:07;7.97;;;7.20;;
69087;SDS011;56190;43.562;5.036;2023-06-04T02:02:33;7.60;;;6.90;;
69087;SDS011;56190;43.562;5.036;2023-06-04T02:05:00;8.05;;;7.25;;
69087;SDS011;56190;43.562;5.036;2023-06-04T02:07:28;8.98;;;7.90;;
69087;SDS011;56190;43.562;5.036;2023-06-04T02:09:53;8.32;;;7.47;;
69087;SDS011;56190;43.562;5.036;2023-06-04T02:12:18;8.13;;;7.25;;
69087;SDS011;56190;43.562;5.036;2023-06-04T02:14:44;8.15;;;7.30;;
69087;SDS011;56190;43.562;5.036;2023-06-04T02:17:12;8.07;;;7.25;;
69087;SDS011;56190;43.562;5.036;2023-06-04T02:19:41;7.88;;;7.07;;
69087;SDS011;56190;43.562;5.036;2023-06-04T02:22:13;9.48;;;7.60;;
69087;SDS011;56190;43.562;5.036;2023-06-04T02:24:39;8.43;;;7.53;;
69087;SDS011;56190;43.562;5.036;2023-06-04T02:27:07;8.55;;;7.85;;
69087;SDS011;56190;43.562;5.036;2023-06-04T02:29:35;8.38;;;7.43;;
69087;SDS011;56190;43.562;5.036;2023-06-04T02:32:00;7.82;;;6.93;;
69087;SDS011;56190;43.562;5.036;2023-06-04T02:34:27;7.75;;;6.75;;
69087;SDS011;56190;43.562;5.036;2023-06-04T02:36:53;8.50;;;7.00;;
69087;SDS011;56190;43.562;5.036;2023-06-04T02:39:19;10.43;;;8.35;;
69087;SDS011;56190;43.562;5.036;2023-06-04T02:41:44;8.30;;;7.50;;
69087;SDS011;56190;43.562;5.036;2023-06-04T02:44:09;8.10;;;7.30;;
69087;SDS011;56190;43.562;5.036;2023-06-04T02:46:35;8.38;;;7.20;;
69087;SDS011;56190;43.562;5.036;2023-06-04T02:49:00;8.68;;;7.88;;
69087;SDS011;56190;43.562;5.036;2023-06-04T02:51:27;8.70;;;7.88;;
69087;SDS011;56190;43.562;5.036;2023-06-04T02:53:53;8.80;;;7.95;;
69087;SDS011;56190;43.562;5.036;2023-06-04T02:56:18;8.82;;;6.90;;
69087;SDS011;56190;43.562;5.036;2023-06-04T02:58:53;10.80;;;7.57;;
69087;SDS011;56190;43.562;5.036;2023-06-04T03:01:20;9.20;;;8.27;;
69087;SDS011;56190;43.562;5.036;2023-06-04T03:03:46;9.88;;;7.60;;
69087;SDS011;56190;43.562;5.036;2023-06-04T03:06:11;9.15;;;7.65;;
69087;SDS011;56190;43.562;5.036;2023-06-04T03:08:39;9.80;;;8.40;;
69087;SDS011;56190;43.562;5.036;2023-06-04T03:11:04;8.88;;;7.43;;
69087;SDS011;56190;43.562;5.036;2023-06-04T03:13:32;8.85;;;7.95;;
69087;SDS011;56190;43.562;5.036;2023-06-04T03:15:59;8.13;;;7.32;;
69087;SDS011;56190;43.562;5.036;2023-06-04T03:18:28;8.65;;;7.72;;
69087;SDS011;56190;43.562;5.036;2023-06-04T03:20:54;8.32;;;7.53;;
69087;SDS011;56190;43.562;5.036;2023-06-04T03:23:20;9.07;;;8.25;;
69087;SDS011;56190;43.562;5.036;2023-06-04T03:25:46;9.30;;;8.27;;
69087;SDS011;56190;43.562;5.036;2023-06-04T03:28:12;9.15;;;8.15;;
69087;SDS011;56190;43.562;5.036;2023-06-04T03:30:40;9.50;;;7.70;;
69087;SDS011;56190;43.562;5.036;2023-06-04T03:33:05;9.27;;;7.95;;
69087;SDS011;56190;43.562;5.036;2023-06-04T03:35:31;9.50;;;8.60;;
69087;SDS011;56190;43.562;5.036;2023-06-04T03:37:56;9.23;;;7.93;;
69087;SDS011;56190;43.562;5.036;2023-06-04T03:40:21;8.93;;;7.55;;
69087;SDS011;56190;43.562;5.036;2023-06-04T03:42:48;8.10;;;7.30;;
69087;SDS011;56190;43.562;5.036;2023-06-04T03:45:14;8.45;;;7.63;;
69087;SDS011;56190;43.562;5.036;2023-06-04T03:47:40;7.55;;;6.63;;
69087;SDS011;56190;43.562;5.036;2023-06-04T03:50:05;9.13;;;8.20;;
69087;SDS011;56190;43.562;5.036;2023-06-04T03:52:31;7.90;;;7.15;;
69087;SDS011;56190;43.562;5.036;2023-06-04T03:54:56;9.35;;;7.22;;
69087;SDS011;56190;43.562;5.036;2023-06-04T03:57:22;8.45;;;7.38;;
69087;SDS011;56190;43.562;5.036;2023-06-04T03:59:49;7.82;;;7.13;;
69087;SDS011;56190;43.562;5.036;2023-06-04T04:02:15;8.00;;;7.20;;
69087;SDS011;56190;43.562;5.036;2023-06-04T04:04:40;7.85;;;7.13;;
69087;SDS011;56190;43.562;5.036;2023-06-04T04:07:06;8.23;;;7.43;;
69087;SDS011;56190;43.562;5.036;2023-06-04T04:09:31;9.85;;;8.10;;
69087;SDS011;56190;43.562;5.036;2023-06-04T04:11:59;9.40;;;8.38;;
69087;SDS011;56190;43.562;5.036;2023-06-04T04:14:24;8.63;;;7.72;;
69087;SDS011;56190;43.562;5.036;2023-06-04T04:16:49;8.27;;;7.18;;
69087;SDS011;56190;43.562;5.036;2023-06-04T04:19:17;8.85;;;8.00;;
69087;SDS011;56190;43.562;5.036;2023-06-04T04:21:42;8.73;;;7.68;;
69087;SDS011;56190;43.562;5.036;2023-06-04T04:24:07;8.32;;;6.93;;
69087;SDS011;56190;43.562;5.036;2023-06-04T04:26:35;8.40;;;7.53;;
69087;SDS011;56190;43.562;5.036;2023-06-04T04:29:00;12.15;;;8.30;;
69087;SDS011;56190;43.562;5.036;2023-06-04T04:31:26;9.13;;;8.07;;
69087;SDS011;56190;43.562;5.036;2023-06-04T04:33:52;8.38;;;7.22;;
69087;SDS011;56190;43.562;5.036;2023-06-04T04:36:17;9.02;;;8.10;;
69087;SDS011;56190;43.562;5.036;2023-06-04T04:38:46;7.78;;;7.07;;
69087;SDS011;56190;43.562;5.036;2023-06-04T04:41:11;8.98;;;8.18;;
69087;SDS011;56190;43.562;5.036;2023-06-04T04:43:37;7.75;;;7.00;;
69087;SDS011;56190;43.562;5.036;2023-06-04T04:46:06;9.30;;;8.40;;
69087;SDS011;56190;43.562;5.036;2023-06-04T04:48:33;8.45;;;7.65;;
69087;SDS011;56190;43.562;5.036;2023-06-04T04:50:58;8.43;;;7.22;;
69087;SDS011;56190;43.562;5.036;2023-06-04T04:53:25;9.35;;;7.90;;
69087;SDS011;56190;43.562;5.036;2023-06-04T04:55:51;10.15;;;7.70;;
69087;SDS011;56190;43.562;5.036;2023-06-04T04:58:16;8.70;;;7.63;;
69087;SDS011;56190;43.562;5.036;2023-06-04T05:00:42;8.85;;;7.95;;
69087;SDS011;56190;43.562;5.036;2023-06-04T05:03:09;8.63;;;7.82;;
69087;SDS011;56190;43.562;5.036;2023-06-04T05:05:35;9.23;;;8.20;;
69087;SDS011;56190;43.562;5.036;2023-06-04T05:08:00;8.00;;;7.15;;
69087;SDS011;56190;43.562;5.036;2023-06-04T05:10:27;7.68;;;6.95;;
69087;SDS011;56190;43.562;5.036;2023-06-04T05:12:52;7.50;;;6.80;;
69087;SDS011;56190;43.562;5.036;2023-06-04T05:15:19;7.68;;;6.88;;
69087;SDS011;56190;43.562;5.036;2023-06-04T05:17:47;8.38;;;7.57;;
69087;SDS011;56190;43.562;5.036;2023-06-04T05:20:12;8.38;;;6.85;;
69087;SDS011;56190;43.562;5.036;2023-06-04T05:22:38;8.27;;;7.47;;
69087;SDS011;56190;43.562;5.036;2023-06-04T05:25:03;8.85;;;7.47;;
69087;SDS011;56190;43.562;5.036;2023-06-04T05:27:31;7.40;;;6.70;;
69087;SDS011;56190;43.562;5.036;2023-06-04T05:29:57;7.68;;;6.43;;
69087;SDS011;56190;43.562;5.036;2023-06-04T05:32:22;9.20;;;7.00;;
69087;SDS011;56190;43.562;5.036;2023-06-04T05:34:48;7.35;;;6.40;;
69087;SDS011;56190;43.562;5.036;2023-06-04T05:37:15;8.32;;;7.10;;
69087;SDS011;56190;43.562;5.036;2023-06-04T05:39:44;7.38;;;6.68;;
69087;SDS011;56190;43.562;5.036;2023-06-04T05:42:11;9.18;;;6.80;;
69087;SDS011;56190;43.562;5.036;2023-06-04T05:44:37;7.68;;;6.15;;
69087;SDS011;56190;43.562;5.036;2023-06-04T05:47:04;7.38;;;6.70;;
69087;SDS011;56190;43.562;5.036;2023-06-04T05:49:30;7.35;;;6.65;;
69087;SDS011;56190;43.562;5.036;2023-06-04T05:51:55;6.38;;;5.78;;
69087;SDS011;56190;43.562;5.036;2023-06-04T05:54:20;7.78;;;6.95;;
69087;SDS011;56190;43.562;5.036;2023-06-04T05:56:45;7.47;;;6.78;;
69087;SDS011;56190;43.562;5.036;2023-06-04T05:59:12;7.05;;;6.35;;
69087;SDS011;56190;43.562;5.036;2023-06-04T06:01:39;7.30;;;5.78;;
69087;SDS011;56190;43.562;5.036;2023-06-04T06:04:05;6.60;;;6.00;;
69087;SDS011;56190;43.562;5.036;2023-06-04T06:06:31;6.70;;;6.10;;
69087;SDS011;56190;43.562;5.036;2023-06-04T06:08:58;7.28;;;5.93;;
69087;SDS011;56190;43.562;5.036;2023-06-04T06:11:23;6.68;;;5.97;;
69087;SDS011;56190;43.562;5.036;2023-06-04T06:13:48;6.30;;;5.70;;
69087;SDS011;56190;43.562;5.036;2023-06-04T06:16:13;6.63;;;5.55;;
69087;SDS011;56190;43.562;5.036;2023-06-04T06:18:39;6.82;;;5.80;;
69087;SDS011;56190;43.562;5.036;2023-06-04T06:21:07;7.45;;;5.45;;
69087;SDS011;56190;43.562;5.036;2023-06-04T06:23:32;7.35;;;5.68;;
69087;SDS011;56190;43.562;5.036;2023-06-04T06:25:57;5.85;;;5.30;;
69087;SDS011;56190;43.562;5.036;2023-06-04T06:28:23;6.72;;;5.97;;
69087;SDS011;56190;43.562;5.036;2023-06-04T06:30:51;6.43;;;5.70;;
69087;SDS011;56190;43.562;5.036;2023-06-04T06:33:16;5.88;;;5.28;;
69087;SDS011;56190;43.562;5.036;2023-06-04T06:35:43;6.88;;;5.20;;
69087;SDS011;56190;43.562;5.036;2023-06-04T06:38:11;7.53;;;6.20;;
69087;SDS011;56190;43.562;5.036;2023-06-04T06:40:36;6.18;;;5.53;;
69087;SDS011;56190;43.562;5.036;2023-06-04T06:43:04;5.95;;;5.30;;
69087;SDS011;56190;43.562;5.036;2023-06-04T06:45:29;5.95;;;5.03;;
69087;SDS011;56190;43.562;5.036;2023-06-04T06:47:54;5.75;;;5.13;;
69087;SDS011;56190;43.562;5.036;2023-06-04T06:50:20;7.45;;;5.90;;
69087;SDS011;56190;43.562;5.036;2023-06-04T06:52:45;5.85;;;5.28;;
69087;SDS011;56190;43.562;5.036;2023-06-04T06:55:10;6.43;;;5.82;;
69087;SDS011;56190;43.562;5.036;2023-06-04T06:57:38;6.20;;;5.57;;
69087;SDS011;56190;43.562;5.036;2023-06-04T07:00:03;6.45;;;5.82;;
69087;SDS011;56190;43.562;5.036;2023-06-04T07:02:29;6.63;;;5.97;;
69087;SDS011;56190;43.562;5.036;2023-06-04T07:04:55;6.32;;;5.72;;
69087;SDS011;56190;43.562;5.036;2023-06-04T07:07:20;6.43;;;5.82;;
69087;SDS011;56190;43.562;5.036;2023-06-04T07:09:45;7.53;;;6.22;;
69087;SDS011;56190;43.562;5.036;2023-06-04T07:12:11;6.88;;;6.18;;
69087;SDS011;56190;43.562;5.036;2023-06-04T07:14:36;7.80;;;7.00;;
69087;SDS011;56190;43.562;5.036;2023-06-04T07:17:01;7.10;;;6.40;;
69087;SDS011;56190;43.562;5.036;2023-06-04T07:19:26;7.03;;;6.28;;
69087;SDS011;56190;43.562;5.036;2023-06-04T07:21:54;7.13;;;6.22;;
69087;SDS011;56190;43.562;5.036;2023-06-04T07:24:19;8.00;;;6.72;;
69087;SDS011;56190;43.562;5.036;2023-06-04T07:26:45;7.15;;;6.40;;
69087;SDS011;56190;43.562;5.036;2023-06-04T07:29:11;7.00;;;6.30;;
69087;SDS011;56190;43.562;5.036;2023-06-04T07:31:36;8.02;;;7.20;;
69087;SDS011;56190;43.562;5.036;2023-06-04T07:34:04;7.90;;;7.10;;
69087;SDS011;56190;43.562;5.036;2023-06-04T07:36:29;6.97;;;6.07;;
69087;SDS011;56190;43.562;5.036;2023-06-04T07:38:56;7.13;;;6.43;;
69087;SDS011;56190;43.562;5.036;2023-06-04T07:41:21;6.72;;;5.50;;
69087;SDS011;56190;43.562;5.036;2023-06-04T07:43:46;6.70;;;5.60;;
69087;SDS011;56190;43.562;5.036;2023-06-04T07:46:11;6.18;;;5.10;;
69087;SDS011;56190;43.562;5.036;2023-06-04T07:48:39;6.13;;;5.18;;
69087;SDS011;56190;43.562;5.036;2023-06-04T07:51:04;5.13;;;4.63;;
69087;SDS011;56190;43.562;5.036;2023-06-04T07:53:31;5.47;;;4.45;;
69087;SDS011;56190;43.562;5.036;2023-06-04T07:55:59;5.00;;;4.50;;
69087;SDS011;56190;43.562;5.036;2023-06-04T07:58:24;5.97;;;5.05;;
69087;SDS011;56190;43.562;5.036;2023-06-04T08:00:50;6.97;;;5.22;;
69087;SDS011;56190;43.562;5.036;2023-06-04T08:03:15;5.95;;;4.50;;
69087;SDS011;56190;43.562;5.036;2023-06-04T08:05:40;5.90;;;5.30;;
69087;SDS011;56190;43.562;5.036;2023-06-04T08:08:06;5.25;;;4.55;;
69087;SDS011;56190;43.562;5.036;2023-06-04T08:10:31;5.50;;;4.72;;
69087;SDS011;56190;43.562;5.036;2023-06-04T08:12:56;8.13;;;5.45;;
69087;SDS011;56190;43.562;5.036;2023-06-04T08:15:22;6.13;;;5.38;;
69087;SDS011;56190;43.562;5.036;2023-06-04T08:17:47;6.13;;;5.20;;
69087;SDS011;56190;43.562;5.036;2023-06-04T08:20:12;5.50;;;4.70;;
69087;SDS011;56190;43.562;5.036;2023-06-04T08:22:37;5.85;;;5.15;;
69087;SDS011;56190;43.562;5.036;2023-06-04T08:25:03;5.75;;;4.80;;
69087;SDS011;56190;43.562;5.036;2023-06-04T08:27:31;6.35;;;4.88;;
69087;SDS011;56190;43.562;5.036;2023-06-04T08:29:57;5.75;;;5.15;;
69087;SDS011;56190;43.562;5.036;2023-06-04T08:32:22;5.32;;;4.78;;
69087;SDS011;56190;43.562;5.036;2023-06-04T08:34:50;6.13;;;5.05;;
69087;SDS011;56190;43.562;5.036;2023-06-04T08:37:16;6.03;;;5.30;;
69087;SDS011;56190;43.562;5.036;2023-06-04T08:39:41;6.85;;;4.82;;
69087;SDS011;56190;43.562;5.036;2023-06-04T08:42:09;6.78;;;4.28;;
69087;SDS011;56190;43.562;5.036;2023-06-04T08:44:40;5.78;;;4.80;;
69087;SDS011;56190;43.562;5.036;2023-06-04T08:47:06;5.20;;;4.70;;
69087;SDS011;56190;43.562;5.036;2023-06-04T08:49:33;7.15;;;5.30;;
69087;SDS011;56190;43.562;5.036;2023-06-04T08:52:04;5.50;;;4.95;;
69087;SDS011;56190;43.562;5.036;2023-06-04T08:54:30;5.93;;;5.10;;
69087;SDS011;56190;43.562;5.036;2023-06-04T08:56:58;6.20;;;4.90;;
69087;SDS011;56190;43.562;5.036;2023-06-04T08:59:28;5.20;;;3.85;;
69087;SDS011;56190;43.562;5.036;2023-06-04T09:01:54;5.55;;;4.60;;
69087;SDS011;56190;43.562;5.036;2023-06-04T09:04:20;5.50;;;4.55;;
69087;SDS011;56190;43.562;5.036;2023-06-04T09:06:45;4.75;;;4.13;;
69087;SDS011;56190;43.562;5.036;2023-06-04T09:09:11;4.63;;;3.80;;
69087;SDS011;56190;43.562;5.036;2023-06-04T09:11:55;5.50;;;4.05;;
69087;SDS011;56190;43.562;5.036;2023-06-04T09:16:49;5.00;;;3.85;;
69087;SDS011;56190;43.562;5.036;2023-06-04T09:19:16;6.13;;;4.00;;
69087;SDS011;56190;43.562;5.036;2023-06-04T09:21:56;4.55;;;4.15;;
69087;SDS011;56190;43.562;5.036;2023-06-04T09:24:27;5.90;;;4.45;;
69087;SDS011;56190;43.562;5.036;2023-06-04T09:27:08;4.30;;;4.00;;
69087;SDS011;56190;43.562;5.036;2023-06-04T09:29:34;4.78;;;4.10;;
69087;SDS011;56190;43.562;5.036;2023-06-04T09:31:59;4.93;;;4.40;;
69087;SDS011;56190;43.562;5.036;2023-06-04T09:34:28;4.63;;;4.18;;
69087;SDS011;56190;43.562;5.036;2023-06-04T09:36:53;5.13;;;3.90;;
69087;SDS011;56190;43.562;5.036;2023-06-04T09:39:19;4.18;;;3.67;;
69087;SDS011;56190;43.562;5.036;2023-06-04T09:41:44;4.82;;;4.15;;
69087;SDS011;56190;43.562;5.036;2023-06-04T09:44:09;5.93;;;4.20;;
69087;SDS011;56190;43.562;5.036;2023-06-04T09:46:36;6.25;;;4.07;;
69087;SDS011;56190;43.562;5.036;2023-06-04T09:49:03;5.82;;;4.45;;
69087;SDS011;56190;43.562;5.036;2023-06-04T09:51:30;6.93;;;6.22;;
69087;SDS011;56190;43.562;5.036;2023-06-04T09:53:56;6.88;;;6.18;;
69087;SDS011;56190;43.562;5.036;2023-06-04T09:56:21;5.03;;;4.45;;
69087;SDS011;56190;43.562;5.036;2023-06-04T09:58:48;4.65;;;3.70;;
69087;SDS011;56190;43.562;5.036;2023-06-04T10:01:16;5.82;;;4.60;;
69087;SDS011;56190;43.562;5.036;2023-06-04T10:03:42;4.65;;;3.22;;
69087;SDS011;56190;43.562;5.036;2023-06-04T10:06:11;3.35;;;3.05;;
69087;SDS011;56190;43.562;5.036;2023-06-04T10:08:39;7.88;;;5.35;;
69087;SDS011;56190;43.562;5.036;2023-06-04T10:11:06;4.32;;;3.47;;
69087;SDS011;56190;43.562;5.036;2023-06-04T10:13:37;4.10;;;3.05;;
69087;SDS011;56190;43.562;5.036;2023-06-04T10:16:03;3.90;;;2.85;;
69087;SDS011;56190;43.562;5.036;2023-06-04T10:18:31;4.63;;;3.35;;
69087;SDS011;56190;43.562;5.036;2023-06-04T10:20:56;4.05;;;2.55;;
69087;SDS011;56190;43.562;5.036;2023-06-04T10:23:22;6.75;;;6.05;;
69087;SDS011;56190;43.562;5.036;2023-06-04T10:25:51;5.45;;;4.95;;
69087;SDS011;56190;43.562;5.036;2023-06-04T10:28:20;12.55;;;10.38;;
69087;SDS011;56190;43.562;5.036;2023-06-04T10:30:48;29.20;;;23.02;;
69087;SDS011;56190;43.562;5.036;2023-06-04T10:33:15;22.40;;;19.95;;
69087;SDS011;56190;43.562;5.036;2023-06-04T10:35:42;24.58;;;20.25;;
69087;SDS011;56190;43.562;5.036;2023-06-04T10:38:08;10.57;;;8.30;;
69087;SDS011;56190;43.562;5.036;2023-06-04T10:40:37;11.38;;;8.38;;
69087;SDS011;56190;43.562;5.036;2023-06-04T10:43:06;17.83;;;15.90;;
69087;SDS011;56190;43.562;5.036;2023-06-04T10:45:31;12.35;;;10.48;;
69087;SDS011;56190;43.562;5.036;2023-06-04T10:48:00;8.02;;;7.15;;
69087;SDS011;56190;43.562;5.036;2023-06-04T10:50:26;10.80;;;7.53;;
69087;SDS011;56190;43.562;5.036;2023-06-04T10:52:52;5.78;;;4.72;;
69087;SDS011;56190;43.562;5.036;2023-06-04T10:55:18;5.13;;;3.85;;
69087;SDS011;56190;43.562;5.036;2023-06-04T10:57:55;3.40;;;2.97;;
69087;SDS011;56190;43.562;5.036;2023-06-04T11:00:21;14.98;;;13.15;;
69087;SDS011;56190;43.562;5.036;2023-06-04T11:02:51;14.90;;;11.95;;
69087;SDS011;56190;43.562;5.036;2023-06-04T11:05:16;19.35;;;15.75;;
69087;SDS011;56190;43.562;5.036;2023-06-04T11:10:09;33.30;;;26.25;;
69087;SDS011;56190;43.562;5.036;2023-06-04T11:12:44;11.25;;;8.98;;
69087;SDS011;56190;43.562;5.036;2023-06-04T11:15:09;8.18;;;6.60;;
69087;SDS011;56190;43.562;5.036;2023-06-04T11:17:35;6.65;;;5.30;;
69087;SDS011;56190;43.562;5.036;2023-06-04T11:20:00;6.07;;;5.40;;
69087;SDS011;56190;43.562;5.036;2023-06-04T11:22:26;8.50;;;5.60;;
69087;SDS011;56190;43.562;5.036;2023-06-04T11:24:57;9.85;;;5.75;;
69087;SDS011;56190;43.562;5.036;2023-06-04T11:27:24;5.78;;;4.53;;
69087;SDS011;56190;43.562;5.036;2023-06-04T11:29:51;5.50;;;5.00;;
69087;SDS011;56190;43.562;5.036;2023-06-04T11:32:22;5.32;;;4.80;;
69087;SDS011;56190;43.562;5.036;2023-06-04T11:37:13;6.32;;;5.13;;
69087;SDS011;56190;43.562;5.036;2023-06-04T11:39:38;6.07;;;5.47;;
69087;SDS011;56190;43.562;5.036;2023-06-04T11:42:05;11.52;;;9.57;;
69087;SDS011;56190;43.562;5.036;2023-06-04T11:44:32;7.03;;;5.10;;
69087;SDS011;56190;43.562;5.036;2023-06-04T11:47:00;6.00;;;5.40;;
69087;SDS011;56190;43.562;5.036;2023-06-04T11:49:27;5.40;;;4.90;;
69087;SDS011;56190;43.562;5.036;2023-06-04T11:51:52;8.20;;;5.25;;
69087;SDS011;56190;43.562;5.036;2023-06-04T11:54:21;6.43;;;5.50;;
69087;SDS011;56190;43.562;5.036;2023-06-04T11:56:48;5.90;;;3.70;;
69087;SDS011;56190;43.562;5.036;2023-06-04T11:59:14;5.47;;;2.55;;
69087;SDS011;56190;43.562;5.036;2023-06-04T12:01:40;6.18;;;2.50;;
69087;SDS011;56190;43.562;5.036;2023-06-04T12:04:12;4.85;;;2.45;;
69087;SDS011;56190;43.562;5.036;2023-06-04T12:06:49;4.60;;;2.55;;
69087;SDS011;56190;43.562;5.036;2023-06-04T12:09:19;5.03;;;3.45;;
69087;SDS011;56190;43.562;5.036;2023-06-04T12:11:45;6.65;;;3.80;;
69087;SDS011;56190;43.562;5.036;2023-06-04T12:14:14;5.47;;;3.60;;
69087;SDS011;56190;43.562;5.036;2023-06-04T12:16:40;3.67;;;3.00;;
69087;SDS011;56190;43.562;5.036;2023-06-04T12:19:06;4.97;;;2.80;;
69087;SDS011;56190;43.562;5.036;2023-06-04T12:21:32;4.78;;;2.70;;
69087;SDS011;56190;43.562;5.036;2023-06-04T12:24:10;4.68;;;2.75;;
69087;SDS011;56190;43.562;5.036;2023-06-04T12:26:36;3.55;;;2.75;;
69087;SDS011;56190;43.562;5.036;2023-06-04T12:29:17;4.10;;;2.67;;
69087;SDS011;56190;43.562;5.036;2023-06-04T12:31:43;3.67;;;2.72;;
69087;SDS011;56190;43.562;5.036;2023-06-04T12:34:09;2.80;;;2.47;;
69087;SDS011;56190;43.562;5.036;2023-06-04T12:36:34;3.88;;;2.60;;
69087;SDS011;56190;43.562;5.036;2023-06-04T12:39:01;3.97;;;2.72;;
69087;SDS011;56190;43.562;5.036;2023-06-04T12:41:27;2.78;;;2.47;;
69087;SDS011;56190;43.562;5.036;2023-06-04T12:43:53;4.75;;;2.40;;
69087;SDS011;56190;43.562;5.036;2023-06-04T12:46:18;4.68;;;2.83;;
69087;SDS011;56190;43.562;5.036;2023-06-04T12:48:43;3.55;;;2.88;;
69087;SDS011;56190;43.562;5.036;2023-06-04T12:51:09;3.25;;;2.83;;
69087;SDS011;56190;43.562;5.036;2023-06-04T12:53:43;5.18;;;2.90;;
69087;SDS011;56190;43.562;5.036;2023-06-04T12:56:08;4.60;;;3.10;;
69087;SDS011;56190;43.562;5.036;2023-06-04T12:58:34;6.03;;;3.78;;
69087;SDS011;56190;43.562;5.036;2023-06-04T13:00:59;4.30;;;3.85;;
69087;SDS011;56190;43.562;5.036;2023-06-04T13:03:25;4.75;;;3.83;;
69087;SDS011;56190;43.562;5.036;2023-06-04T13:05:50;5.47;;;4.00;;
69087;SDS011;56190;43.562;5.036;2023-06-04T13:08:16;4.38;;;3.97;;
69087;SDS011;56190;43.562;5.036;2023-06-04T13:10:42;4.65;;;4.18;;
69087;SDS011;56190;43.562;5.036;2023-06-04T13:13:08;5.95;;;4.07;;
69087;SDS011;56190;43.562;5.036;2023-06-04T13:15:33;5.38;;;3.67;;
69087;SDS011;56190;43.562;5.036;2023-06-04T13:17:58;9.93;;;4.10;;
69087;SDS011;56190;43.562;5.036;2023-06-04T13:20:24;4.07;;;3.67;;
69087;SDS011;56190;43.562;5.036;2023-06-04T13:22:50;8.65;;;3.85;;
69087;SDS011;56190;43.562;5.036;2023-06-04T13:25:15;5.30;;;3.33;;
69087;SDS011;56190;43.562;5.036;2023-06-04T13:27:40;5.43;;;3.55;;
69087;SDS011;56190;43.562;5.036;2023-06-04T13:30:05;3.72;;;3.20;;
69087;SDS011;56190;43.562;5.036;2023-06-04T13:32:31;4.70;;;3.25;;
69087;SDS011;56190;43.562;5.036;2023-06-04T13:34:57;4.03;;;2.88;;
69087;SDS011;56190;43.562;5.036;2023-06-04T13:37:22;5.10;;;2.83;;
69087;SDS011;56190;43.562;5.036;2023-06-04T13:39:48;4.13;;;2.90;;
69087;SDS011;56190;43.562;5.036;2023-06-04T13:42:15;5.45;;;2.70;;
69087;SDS011;56190;43.562;5.036;2023-06-04T13:44:40;4.45;;;2.85;;
69087;SDS011;56190;43.562;5.036;2023-06-04T13:47:08;5.18;;;3.13;;
69087;SDS011;56190;43.562;5.036;2023-06-04T13:49:33;4.03;;;3.10;;
69087;SDS011;56190;43.562;5.036;2023-06-04T13:51:59;5.38;;;3.30;;
69087;SDS011;56190;43.562;5.036;2023-06-04T13:54:24;4.50;;;3.05;;
69087;SDS011;56190;43.562;5.036;2023-06-04T13:56:50;3.50;;;2.72;;
69087;SDS011;56190;43.562;5.036;2023-06-04T13:59:17;4.13;;;2.72;;
69087;SDS011;56190;43.562;5.036;2023-06-04T14:01:42;4.43;;;3.40;;
69087;SDS011;56190;43.562;5.036;2023-06-04T14:04:08;3.50;;;2.75;;
69087;SDS011;56190;43.562;5.036;2023-06-04T14:06:35;3.33;;;2.97;;
69087;SDS011;56190;43.562;5.036;2023-06-04T14:09:01;4.18;;;3.30;;
69087;SDS011;56190;43.562;5.036;2023-06-04T14:11:26;5.15;;;2.78;;
69087;SDS011;56190;43.562;5.036;2023-06-04T14:13:52;5.90;;;3.10;;
69087;SDS011;56190;43.562;5.036;2023-06-04T14:16:17;6.10;;;3.15;;
69087;SDS011;56190;43.562;5.036;2023-06-04T14:18:42;4.82;;;3.00;;
69087;SDS011;56190;43.562;5.036;2023-06-04T14:21:07;5.82;;;3.03;;
69087;SDS011;56190;43.562;5.036;2023-06-04T14:23:33;4.38;;;3.00;;
69087;SDS011;56190;43.562;5.036;2023-06-04T14:26:00;4.07;;;3.08;;
69087;SDS011;56190;43.562;5.036;2023-06-04T14:28:26;3.33;;;2.88;;
69087;SDS011;56190;43.562;5.036;2023-06-04T14:30:51;6.70;;;3.00;;
69087;SDS011;56190;43.562;5.036;2023-06-04T14:33:16;5.25;;;3.22;;
69087;SDS011;56190;43.562;5.036;2023-06-04T14:35:42;6.10;;;2.90;;
69087;SDS011;56190;43.562;5.036;2023-06-04T14:38:11;4.45;;;3.03;;
69087;SDS011;56190;43.562;5.036;2023-06-04T14:40:37;6.25;;;3.38;;
69087;SDS011;56190;43.562;5.036;2023-06-04T14:43:03;6.13;;;3.20;;
69087;SDS011;56190;43.562;5.036;2023-06-04T14:45:30;4.97;;;3.47;;
69087;SDS011;56190;43.562;5.036;2023-06-04T14:47:55;4.05;;;3.30;;
69087;SDS011;56190;43.562;5.036;2023-06-04T14:50:22;5.38;;;3.03;;